createdAt,value
2023-10-14T00:01:54.292Z,19.76
2023-10-14T00:04:27.735Z,19.77
2023-10-14T00:06:59.181Z,19.78
2023-10-14T00:09:27.509Z,19.80
2023-10-14T00:11:57.253Z,19.81
2023-10-14T00:14:25.307Z,19.83
2023-10-14T00:16:53.449Z,19.85
2023-10-14T00:19:24.070Z,19.86
2023-10-14T00:21:52.394Z,19.89
2023-10-14T00:24:27.761Z,19.90
2023-10-14T00:26:59.233Z,19.91
2023-10-14T00:29:30.712Z,19.92
2023-10-14T00:32:04.736Z,19.92
2023-10-14T00:34:32.724Z,19.92
2023-10-14T00:37:00.778Z,19.92
2023-10-14T00:39:29.224Z,19.91
2023-10-14T00:42:15.908Z,19.91
2023-10-14T00:44:43.952Z,19.91
2023-10-14T00:47:17.028Z,19.90
2023-10-14T00:49:47.166Z,19.88
2023-10-14T00:52:21.620Z,19.84
2023-10-14T00:55:00.310Z,19.81
2023-10-14T00:57:40.030Z,19.78
2023-10-14T01:00:12.750Z,19.75
2023-10-14T01:02:43.495Z,19.72
2023-10-14T01:05:18.901Z,19.69
2023-10-14T01:07:49.036Z,19.67
2023-10-14T01:10:25.618Z,19.62
2023-10-14T01:12:56.516Z,19.59
2023-10-14T01:15:30.423Z,19.55
2023-10-14T01:17:58.276Z,19.53
2023-10-14T01:20:26.132Z,19.51
2023-10-14T01:23:01.722Z,19.51
2023-10-14T01:25:31.780Z,19.50
2023-10-14T01:28:01.372Z,19.49
2023-10-14T01:30:34.542Z,19.49
2023-10-14T01:33:17.902Z,19.48
2023-10-14T01:35:53.114Z,19.47
2023-10-14T01:38:25.027Z,19.45
2023-10-14T01:40:55.666Z,19.43
2023-10-14T01:43:26.743Z,19.41
2023-10-14T01:45:57.578Z,19.38
2023-10-14T01:48:34.662Z,19.35
2023-10-14T01:51:05.276Z,19.31
2023-10-14T01:53:33.862Z,19.28
2023-10-14T01:56:07.831Z,19.26
2023-10-14T01:58:37.482Z,19.21
2023-10-14T02:01:14.707Z,19.17
2023-10-14T02:03:52.857Z,19.13
2023-10-14T02:06:32.125Z,19.09
2023-10-14T02:09:01.593Z,19.03
2023-10-14T02:11:36.468Z,18.98
2023-10-14T02:14:08.997Z,18.94
2023-10-14T02:16:46.076Z,18.88
2023-10-14T02:19:38.582Z,18.83
2023-10-14T02:22:11.034Z,18.76
2023-10-14T02:24:39.306Z,18.72
2023-10-14T02:27:14.093Z,18.68
2023-10-14T02:29:48.871Z,18.64
2023-10-14T02:32:16.864Z,18.61
2023-10-14T02:34:48.040Z,18.58
2023-10-14T02:37:16.010Z,18.55
2023-10-14T02:39:45.069Z,18.52
2023-10-14T02:42:16.590Z,18.47
2023-10-14T02:44:46.101Z,18.41
2023-10-14T02:47:15.666Z,18.36
2023-10-14T02:49:55.281Z,18.32
2023-10-14T02:52:31.037Z,18.28
2023-10-14T02:55:18.222Z,18.25
2023-10-14T02:57:49.286Z,18.21
2023-10-14T03:00:34.124Z,18.18
2023-10-14T03:03:05.071Z,18.15
2023-10-14T03:05:51.963Z,18.12
2023-10-14T03:08:22.033Z,18.10
2023-10-14T03:11:01.710Z,18.08
2023-10-14T03:13:31.193Z,18.05
2023-10-14T03:15:59.730Z,18.03
2023-10-14T03:18:47.962Z,18.02
2023-10-14T03:21:25.868Z,18.01
2023-10-14T03:23:58.185Z,18.01
2023-10-14T03:26:33.675Z,18.01
2023-10-14T03:29:13.757Z,18.01
2023-10-14T03:31:46.374Z,18.02
2023-10-14T03:34:15.068Z,18.03
2023-10-14T03:36:44.875Z,18.03
2023-10-14T03:39:39.300Z,18.04
2023-10-14T03:42:11.842Z,18.04
2023-10-14T03:44:43.181Z,18.06
2023-10-14T03:47:17.994Z,18.06
2023-10-14T03:49:46.735Z,18.07
2023-10-14T03:52:15.194Z,18.07
2023-10-14T03:54:43.410Z,18.07
2023-10-14T03:57:19.586Z,18.06
2023-10-14T03:59:48.783Z,18.03
2023-10-14T04:02:26.575Z,18.00
2023-10-14T04:05:03.273Z,17.98
2023-10-14T04:07:31.111Z,17.96
2023-10-14T04:10:06.244Z,17.94
2023-10-14T04:12:36.812Z,17.91
2023-10-14T04:15:26.928Z,17.87
2023-10-14T04:17:56.882Z,17.82
2023-10-14T04:20:31.388Z,17.77
2023-10-14T04:22:59.724Z,17.71
2023-10-14T04:25:58.037Z,17.66
2023-10-14T04:28:32.461Z,17.60
2023-10-14T04:31:08.643Z,17.55
2023-10-14T04:33:46.261Z,17.52
2023-10-14T04:36:17.661Z,17.47
2023-10-14T04:38:45.527Z,17.42
2023-10-14T04:41:17.775Z,17.38
2023-10-14T04:43:48.769Z,17.33
2023-10-14T04:46:34.196Z,17.29
2023-10-14T04:49:08.817Z,17.25
2023-10-14T04:51:47.369Z,17.20
2023-10-14T04:54:22.319Z,17.16
2023-10-14T04:56:50.374Z,17.12
2023-10-14T04:59:26.385Z,17.07
2023-10-14T05:01:57.277Z,17.03
2023-10-14T05:04:31.994Z,16.99
2023-10-14T05:07:05.739Z,16.94
2023-10-14T05:09:41.112Z,16.90
2023-10-14T05:12:10.797Z,16.86
2023-10-14T05:14:38.920Z,16.84
2023-10-14T05:17:16.424Z,16.80
2023-10-14T05:19:49.346Z,16.77
2023-10-14T05:22:20.925Z,16.75
2023-10-14T05:24:53.828Z,16.73
2023-10-14T05:27:45.452Z,16.71
2023-10-14T05:30:23.305Z,16.69
2023-10-14T05:32:52.826Z,16.67
2023-10-14T05:35:23.847Z,16.67
2023-10-14T05:37:52.052Z,16.66
2023-10-14T05:40:23.295Z,16.66
2023-10-14T05:42:52.281Z,16.65
2023-10-14T05:45:22.673Z,16.64
2023-10-14T05:47:50.731Z,16.66
2023-10-14T05:50:21.501Z,16.68
2023-10-14T05:52:51.097Z,16.71
2023-10-14T05:55:21.664Z,16.74
2023-10-14T05:57:50.541Z,16.76
2023-10-14T06:00:22.716Z,16.79
2023-10-14T06:02:59.058Z,16.81
2023-10-14T06:05:32.563Z,16.84
2023-10-14T06:08:18.884Z,16.86
2023-10-14T06:10:48.161Z,16.87
2023-10-14T06:13:16.614Z,16.87
2023-10-14T06:15:45.575Z,16.91
2023-10-14T06:18:17.304Z,16.94
2023-10-14T06:20:48.385Z,16.94
2023-10-14T06:23:19.673Z,16.96
2023-10-14T06:25:47.647Z,16.99
2023-10-14T06:28:16.123Z,17.03
2023-10-14T06:30:44.555Z,17.08
2023-10-14T06:33:13.368Z,17.14
2023-10-14T06:35:45.280Z,17.20
2023-10-14T06:38:21.370Z,17.25
2023-10-14T06:40:54.668Z,17.30
2023-10-14T06:43:29.280Z,17.33
2023-10-14T06:45:58.483Z,17.37
2023-10-14T06:48:27.387Z,17.40
2023-10-14T06:50:56.363Z,17.43
2023-10-14T06:53:29.523Z,17.47
2023-10-14T06:56:00.069Z,17.52
2023-10-14T06:58:29.977Z,17.56
2023-10-14T07:01:00.556Z,17.60
2023-10-14T07:03:30.310Z,17.63
2023-10-14T07:05:58.575Z,17.67
2023-10-14T07:08:28.760Z,17.70
2023-10-14T07:10:57.863Z,17.75
2023-10-14T07:13:26.168Z,17.80
2023-10-14T07:15:55.434Z,17.86
2023-10-14T07:18:26.615Z,17.93
2023-10-14T07:20:58.839Z,17.97
2023-10-14T07:23:34.700Z,18.01
2023-10-14T07:26:14.711Z,18.04
2023-10-14T07:28:44.941Z,18.09
2023-10-14T07:31:14.664Z,18.16
2023-10-14T07:33:45.502Z,18.30
2023-10-14T07:36:15.633Z,18.53
2023-10-14T07:38:45.445Z,18.76
2023-10-14T07:41:15.423Z,18.88
2023-10-14T07:43:43.358Z,18.93
2023-10-14T07:46:11.486Z,18.95
2023-10-14T07:48:40.317Z,18.97
2023-10-14T07:51:28.012Z,18.97
2023-10-14T07:53:58.294Z,18.93
2023-10-14T07:56:26.377Z,18.83
2023-10-14T07:58:56.710Z,18.68
2023-10-14T08:01:25.077Z,18.52
2023-10-14T08:03:58.476Z,18.35
2023-10-14T08:06:27.659Z,18.14
2023-10-14T08:08:55.956Z,17.89
2023-10-14T08:11:23.833Z,17.58
2023-10-14T08:13:51.747Z,17.23
2023-10-14T08:16:21.497Z,16.89
2023-10-14T08:18:50.256Z,16.62
2023-10-14T08:21:20.618Z,16.41
2023-10-14T08:23:48.753Z,16.20
2023-10-14T08:26:18.106Z,16.04
2023-10-14T08:28:46.088Z,15.93
2023-10-14T08:31:14.042Z,15.83
2023-10-14T08:33:45.752Z,15.68
2023-10-14T08:36:15.093Z,15.51
2023-10-14T08:38:45.481Z,15.35
2023-10-14T08:41:17.442Z,15.21
2023-10-14T08:43:55.760Z,15.10
2023-10-14T08:46:30.607Z,15.00
2023-10-14T08:49:00.058Z,14.94
2023-10-14T08:51:39.173Z,14.92
2023-10-14T08:54:12.521Z,14.92
2023-10-14T08:56:44.982Z,14.93
2023-10-14T08:59:13.774Z,14.94
2023-10-14T09:01:49.041Z,14.97
2023-10-14T09:04:31.246Z,14.97
2023-10-14T09:07:14.909Z,14.98
2023-10-14T09:09:46.345Z,14.99
2023-10-14T09:12:14.333Z,15.01
2023-10-14T09:14:43.818Z,14.99
2023-10-14T09:17:13.047Z,14.92
2023-10-14T09:19:50.027Z,14.86
2023-10-14T09:22:29.001Z,14.81
2023-10-14T09:25:00.688Z,14.76
2023-10-14T09:27:32.022Z,14.70
2023-10-14T09:30:00.934Z,14.68
2023-10-14T09:32:29.129Z,14.68
2023-10-14T09:35:00.016Z,14.74
2023-10-14T09:37:28.017Z,14.81
2023-10-14T09:40:06.759Z,14.86
2023-10-14T09:42:36.624Z,14.88
2023-10-14T09:45:12.756Z,14.86
2023-10-14T09:47:47.495Z,14.82
2023-10-14T09:50:17.826Z,14.80
2023-10-14T09:52:49.065Z,14.81
2023-10-14T09:55:20.649Z,14.84
2023-10-14T09:57:49.001Z,14.89
2023-10-14T10:00:18.252Z,14.93
2023-10-14T10:02:52.268Z,14.99
2023-10-14T10:05:37.428Z,15.05
2023-10-14T10:08:38.141Z,15.08
2023-10-14T10:11:06.530Z,15.11
2023-10-14T10:13:37.092Z,15.14
2023-10-14T10:16:06.471Z,15.17
2023-10-14T10:18:58.429Z,15.19
2023-10-14T10:21:31.319Z,15.19
2023-10-14T10:24:39.599Z,15.20
2023-10-14T10:27:11.727Z,15.21
2023-10-14T10:29:57.073Z,15.23
2023-10-14T10:32:35.314Z,15.24
2023-10-14T10:35:14.749Z,15.25
2023-10-14T10:37:50.565Z,15.26
2023-10-14T10:40:29.675Z,15.23
2023-10-14T10:43:11.355Z,15.20
2023-10-14T10:45:44.143Z,15.20
2023-10-14T10:48:15.887Z,15.22
2023-10-14T10:50:51.953Z,15.34
2023-10-14T10:53:21.812Z,15.56
2023-10-14T10:55:53.330Z,15.79
2023-10-14T10:58:24.498Z,15.92
2023-10-14T11:00:53.160Z,16.07
2023-10-14T11:03:21.340Z,16.27
2023-10-14T11:05:50.115Z,16.42
2023-10-14T11:08:18.165Z,16.43
2023-10-14T11:10:49.649Z,16.40
2023-10-14T11:13:18.148Z,16.34
2023-10-14T11:15:48.091Z,16.32
2023-10-14T11:18:31.697Z,16.27
2023-10-14T11:21:05.801Z,16.21
2023-10-14T11:23:37.933Z,16.19
2023-10-14T11:26:12.910Z,16.17
2023-10-14T11:28:46.573Z,16.15
2023-10-14T11:31:16.348Z,16.16
2023-10-14T11:33:48.894Z,16.16
2023-10-14T11:36:19.799Z,16.16
2023-10-14T11:38:50.444Z,16.14
2023-10-14T11:41:19.405Z,16.11
2023-10-14T11:43:48.527Z,16.08
2023-10-14T11:46:18.832Z,16.05
2023-10-14T11:48:49.485Z,16.03
2023-10-14T11:51:23.745Z,15.98
2023-10-14T11:53:54.510Z,15.94
2023-10-14T11:56:22.521Z,15.88
2023-10-14T11:58:50.989Z,15.87
2023-10-14T12:01:25.134Z,15.89
2023-10-14T12:03:54.360Z,15.93
2023-10-14T12:06:22.933Z,16.00
2023-10-14T12:08:53.286Z,16.17
2023-10-14T12:11:21.460Z,16.37
2023-10-14T12:13:51.324Z,16.59
2023-10-14T12:16:20.644Z,16.79
2023-10-14T12:18:50.358Z,16.85
2023-10-14T12:21:18.258Z,16.84
2023-10-14T12:23:47.684Z,16.86
2023-10-14T12:26:31.033Z,16.93
2023-10-14T12:29:21.545Z,17.00
2023-10-14T12:31:50.255Z,16.93
2023-10-14T12:34:20.920Z,16.87
2023-10-14T12:36:48.915Z,16.85
2023-10-14T12:39:28.263Z,16.84
2023-10-14T12:42:21.020Z,16.84
2023-10-14T12:44:54.156Z,16.75
2023-10-14T12:47:25.657Z,16.65
2023-10-14T12:49:55.724Z,16.59
2023-10-14T12:52:24.930Z,16.51
2023-10-14T12:54:53.597Z,16.44
2023-10-14T12:57:21.625Z,16.33
2023-10-14T12:59:50.220Z,16.21
2023-10-14T13:02:18.793Z,16.10
2023-10-14T13:04:46.743Z,15.95
2023-10-14T13:07:14.792Z,15.80
2023-10-14T13:09:42.825Z,15.64
2023-10-14T13:12:17.730Z,15.47
2023-10-14T13:14:47.277Z,15.29
2023-10-14T13:17:16.704Z,15.11
2023-10-14T13:19:44.743Z,14.93
2023-10-14T13:22:15.192Z,14.78
2023-10-14T13:24:51.186Z,14.67
2023-10-14T13:27:19.809Z,14.58
2023-10-14T13:29:47.984Z,14.55
2023-10-14T13:32:18.192Z,14.61
2023-10-14T13:34:46.898Z,14.66
2023-10-14T13:37:15.911Z,14.62
2023-10-14T13:39:44.460Z,14.53
2023-10-14T13:42:12.777Z,14.45
2023-10-14T13:44:41.427Z,14.36
2023-10-14T13:47:09.691Z,14.28
2023-10-14T13:49:37.848Z,14.25
2023-10-14T13:52:06.659Z,14.25
2023-10-14T13:54:34.904Z,14.24
2023-10-14T13:57:05.650Z,14.17
2023-10-14T13:59:34.886Z,14.10
2023-10-14T14:02:04.796Z,14.00
2023-10-14T14:04:36.395Z,13.94
2023-10-14T14:07:07.676Z,13.93
2023-10-14T14:09:35.816Z,13.95
2023-10-14T14:12:05.723Z,13.96
2023-10-14T14:14:38.225Z,14.00
2023-10-14T14:17:07.145Z,14.07
2023-10-14T14:19:35.332Z,14.14
2023-10-14T14:22:06.522Z,14.18
2023-10-14T14:24:34.575Z,14.16
2023-10-14T14:27:04.099Z,14.12
2023-10-14T14:29:32.143Z,14.08
2023-10-14T14:32:00.204Z,14.06
2023-10-14T14:34:32.270Z,14.07
2023-10-14T14:37:01.168Z,14.11
2023-10-14T14:39:31.459Z,14.17
2023-10-14T14:42:22.616Z,14.23
2023-10-14T14:44:50.889Z,14.23
2023-10-14T14:47:18.950Z,14.16
2023-10-14T14:49:47.252Z,14.11
2023-10-14T14:52:15.445Z,14.04
2023-10-14T14:54:43.680Z,13.99
2023-10-14T14:57:11.546Z,13.96
2023-10-14T14:59:39.414Z,13.97
2023-10-14T15:02:08.633Z,13.96
2023-10-14T15:04:39.512Z,13.95
2023-10-14T15:07:08.146Z,13.92
2023-10-14T15:09:38.162Z,13.85
2023-10-14T15:12:08.927Z,13.83
2023-10-14T15:14:40.307Z,13.81
2023-10-14T15:17:09.400Z,13.76
2023-10-14T15:19:37.548Z,13.69
2023-10-14T15:22:07.737Z,13.63
2023-10-14T15:24:35.851Z,13.58
2023-10-14T15:27:04.433Z,13.52
2023-10-14T15:29:33.036Z,13.48
2023-10-14T15:32:01.119Z,13.42
2023-10-14T15:34:29.115Z,13.34
2023-10-14T15:36:57.066Z,13.28
2023-10-14T15:39:35.008Z,13.22
2023-10-14T15:42:04.128Z,13.15
2023-10-14T15:44:32.092Z,13.08
2023-10-14T15:47:01.114Z,13.00
2023-10-14T15:49:38.656Z,12.92
2023-10-14T15:52:07.049Z,12.84
2023-10-14T15:54:35.099Z,12.76
2023-10-14T15:57:09.952Z,12.68
2023-10-14T15:59:38.365Z,12.60
2023-10-14T16:02:06.777Z,12.53
2023-10-14T16:04:35.980Z,12.49
2023-10-14T16:07:06.843Z,12.49
2023-10-14T16:09:35.107Z,12.50
2023-10-14T16:12:04.891Z,12.52
2023-10-14T16:14:32.780Z,12.53
2023-10-14T16:17:00.677Z,12.53
2023-10-14T16:19:28.972Z,12.51
2023-10-14T16:21:59.594Z,12.50
2023-10-14T16:24:27.668Z,12.46
2023-10-14T16:26:55.507Z,12.43
2023-10-14T16:29:25.693Z,12.39
2023-10-14T16:31:55.284Z,12.36
2023-10-14T16:34:28.075Z,12.32
2023-10-14T16:36:56.255Z,12.28
2023-10-14T16:39:24.524Z,12.25
2023-10-14T16:41:52.663Z,12.22
2023-10-14T16:44:38.092Z,12.18
2023-10-14T16:47:06.076Z,12.16
2023-10-14T16:49:35.994Z,12.13
2023-10-14T16:52:05.471Z,12.10
2023-10-14T16:54:33.441Z,12.06
2023-10-14T16:57:01.397Z,12.03
2023-10-14T16:59:32.728Z,12.00
2023-10-14T17:02:00.996Z,11.98
2023-10-14T17:04:29.282Z,11.96
2023-10-14T17:06:57.769Z,11.94
2023-10-14T17:09:28.335Z,11.93
2023-10-14T17:11:56.243Z,11.93
2023-10-14T17:14:30.337Z,11.94
2023-10-14T17:16:58.496Z,11.93
2023-10-14T17:19:26.764Z,11.91
2023-10-14T17:21:55.792Z,11.89
2023-10-14T17:24:28.607Z,11.87
2023-10-14T17:26:56.474Z,11.86
2023-10-14T17:29:24.534Z,11.83
2023-10-14T17:31:52.810Z,11.83
2023-10-14T17:34:21.624Z,11.82
2023-10-14T17:36:49.668Z,11.82
2023-10-14T17:39:22.970Z,11.81
2023-10-14T17:41:51.902Z,11.80
2023-10-14T17:44:21.244Z,11.78
2023-10-14T17:46:49.308Z,11.76
2023-10-14T17:49:17.355Z,11.73
2023-10-14T17:51:45.194Z,11.72
2023-10-14T17:54:13.026Z,11.69
2023-10-14T17:56:41.008Z,11.67
2023-10-14T17:59:08.982Z,11.64
2023-10-14T18:01:37.078Z,11.61
2023-10-14T18:04:07.867Z,11.58
2023-10-14T18:06:37.386Z,11.56
2023-10-14T18:09:12.576Z,11.52
2023-10-14T18:11:45.840Z,11.49
2023-10-14T18:14:16.491Z,11.48
2023-10-14T18:16:57.018Z,11.48
2023-10-14T18:19:34.032Z,11.46
2023-10-14T18:22:02.602Z,11.44
2023-10-14T18:24:34.154Z,11.42
2023-10-14T18:27:02.434Z,11.39
2023-10-14T18:29:30.404Z,11.36
2023-10-14T18:31:58.299Z,11.34
2023-10-14T18:34:28.597Z,11.31
2023-10-14T18:36:56.929Z,11.29
2023-10-14T18:39:27.761Z,11.27
2023-10-14T18:42:14.883Z,11.26
2023-10-14T18:44:46.239Z,11.23
2023-10-14T18:47:14.329Z,11.21
2023-10-14T18:49:45.021Z,11.19
2023-10-14T18:52:15.222Z,11.17
2023-10-14T18:54:43.161Z,11.15
2023-10-14T18:57:11.470Z,11.13
2023-10-14T18:59:40.675Z,11.10
2023-10-14T19:02:08.555Z,11.08
2023-10-14T19:04:38.054Z,11.07
2023-10-14T19:07:07.616Z,11.06
2023-10-14T19:09:36.619Z,11.04
2023-10-14T19:12:04.811Z,11.03
2023-10-14T19:14:47.683Z,10.99
2023-10-14T19:17:16.843Z,10.98
2023-10-14T19:19:45.520Z,10.98
2023-10-14T19:22:13.622Z,10.96
2023-10-14T19:24:41.504Z,10.94
2023-10-14T19:27:10.288Z,10.91
2023-10-14T19:29:38.107Z,10.88
2023-10-14T19:32:10.742Z,10.86
2023-10-14T19:34:39.691Z,10.85
2023-10-14T19:37:08.627Z,10.84
2023-10-14T19:39:36.899Z,10.82
2023-10-14T19:42:05.527Z,10.79
2023-10-14T19:44:33.436Z,10.78
2023-10-14T19:47:01.472Z,10.75
2023-10-14T19:49:41.480Z,10.73
2023-10-14T19:52:17.249Z,10.70
2023-10-14T19:54:45.137Z,10.68
2023-10-14T19:57:12.929Z,10.66
2023-10-14T19:59:42.153Z,10.64
2023-10-14T20:02:13.240Z,10.62
2023-10-14T20:04:41.886Z,10.60
2023-10-14T20:07:10.802Z,10.57
2023-10-14T20:09:39.160Z,10.54
2023-10-14T20:12:07.517Z,10.52
2023-10-14T20:14:35.364Z,10.50
2023-10-14T20:17:03.650Z,10.48
2023-10-14T20:19:32.568Z,10.45
2023-10-14T20:22:00.615Z,10.42
2023-10-14T20:24:28.572Z,10.38
2023-10-14T20:26:56.753Z,10.35
2023-10-14T20:29:25.228Z,10.33
2023-10-14T20:31:55.819Z,10.31
2023-10-14T20:34:34.398Z,10.28
2023-10-14T20:37:02.850Z,10.26
2023-10-14T20:39:31.365Z,10.25
2023-10-14T20:42:18.929Z,10.21
2023-10-14T20:44:48.872Z,10.18
2023-10-14T20:47:18.967Z,10.16
2023-10-14T20:49:46.961Z,10.13
2023-10-14T20:52:14.868Z,10.10
2023-10-14T20:54:44.058Z,10.08
2023-10-14T20:57:12.072Z,10.08
2023-10-14T20:59:41.089Z,10.08
2023-10-14T21:02:10.099Z,10.07
2023-10-14T21:04:38.153Z,10.06
2023-10-14T21:07:06.050Z,10.05
2023-10-14T21:09:34.122Z,10.04
2023-10-14T21:12:01.915Z,10.00
2023-10-14T21:14:29.831Z,9.97
2023-10-14T21:16:59.600Z,9.95
2023-10-14T21:19:27.585Z,9.94
2023-10-14T21:21:57.802Z,9.91
2023-10-14T21:24:25.767Z,9.90
2023-10-14T21:26:53.628Z,9.88
2023-10-14T21:29:22.109Z,9.87
2023-10-14T21:31:50.075Z,9.84
2023-10-14T21:34:18.704Z,9.82
2023-10-14T21:36:46.558Z,9.81
2023-10-14T21:39:14.415Z,9.81
2023-10-14T21:41:42.228Z,9.81
2023-10-14T21:44:10.096Z,9.81
2023-10-14T21:46:38.631Z,9.80
2023-10-14T21:49:07.745Z,9.78
2023-10-14T21:51:38.039Z,9.76
2023-10-14T21:54:06.115Z,9.74
2023-10-14T21:56:34.008Z,9.72
2023-10-14T21:59:02.699Z,9.70
2023-10-14T22:01:30.705Z,9.69
2023-10-14T22:03:59.432Z,9.69
2023-10-14T22:06:29.758Z,9.69
2023-10-14T22:09:00.853Z,9.69
2023-10-14T22:11:28.994Z,9.68
2023-10-14T22:13:56.878Z,9.68
2023-10-14T22:16:27.524Z,9.67
2023-10-14T22:18:55.597Z,9.67
2023-10-14T22:21:23.865Z,9.66
2023-10-14T22:23:51.977Z,9.64
2023-10-14T22:26:20.964Z,9.61
2023-10-14T22:28:50.026Z,9.58
2023-10-14T22:31:18.955Z,9.57
2023-10-14T22:33:47.083Z,9.56
2023-10-14T22:36:16.067Z,9.55
2023-10-14T22:38:44.960Z,9.55
2023-10-14T22:41:13.426Z,9.57
2023-10-14T22:43:44.042Z,9.56
2023-10-14T22:46:16.107Z,9.55
2023-10-14T22:48:44.469Z,9.56
2023-10-14T22:51:12.804Z,9.54
2023-10-14T22:53:41.146Z,9.55
2023-10-14T22:56:09.198Z,9.56
2023-10-14T22:58:40.956Z,9.56
2023-10-14T23:01:12.029Z,9.54
2023-10-14T23:03:42.933Z,9.52
2023-10-14T23:06:11.648Z,9.50
2023-10-14T23:08:39.817Z,9.48
2023-10-14T23:11:07.742Z,9.46
2023-10-14T23:13:35.635Z,9.45
2023-10-14T23:16:03.644Z,9.46
2023-10-14T23:18:34.710Z,9.46
2023-10-14T23:21:05.135Z,9.46
2023-10-14T23:23:35.295Z,9.46
2023-10-14T23:26:03.777Z,9.47
2023-10-14T23:28:34.360Z,9.47
2023-10-14T23:31:03.009Z,9.46
2023-10-14T23:33:31.016Z,9.45
2023-10-14T23:35:58.982Z,9.43
2023-10-14T23:38:26.815Z,9.43
2023-10-14T23:40:57.161Z,9.41
2023-10-14T23:43:25.709Z,9.40
2023-10-14T23:45:53.692Z,9.39
2023-10-14T23:48:24.756Z,9.40
2023-10-14T23:50:52.791Z,9.39
2023-10-14T23:53:21.695Z,9.36
2023-10-14T23:55:49.929Z,9.35
2023-10-14T23:58:17.817Z,9.34
